createdAt,value
2023-02-08T00:00:52.077Z,102486.97
2023-02-08T00:03:21.733Z,102507.47
2023-02-08T00:05:48.605Z,102501.22
2023-02-08T00:08:15.458Z,102486.72
2023-02-08T00:10:42.643Z,102492.38
2023-02-08T00:13:09.673Z,102495.78
2023-02-08T00:15:41.637Z,102507.00
2023-02-08T00:18:08.485Z,102502.44
2023-02-08T00:20:35.294Z,102505.16
2023-02-08T00:23:02.077Z,102508.44
2023-02-08T00:25:28.803Z,102509.75
2023-02-08T00:27:55.591Z,102513.03
2023-02-08T00:30:22.419Z,102516.88
2023-02-08T00:32:49.377Z,102511.06
2023-02-08T00:35:16.263Z,102511.78
2023-02-08T00:37:45.980Z,102505.03
2023-02-08T00:40:12.812Z,102498.50
2023-02-08T00:42:39.792Z,102496.69
2023-02-08T00:45:06.810Z,102513.00
2023-02-08T00:47:33.541Z,102510.81
2023-02-08T00:50:00.369Z,102499.47
2023-02-08T00:52:27.983Z,102501.03
2023-02-08T00:54:54.901Z,102501.06
2023-02-08T00:57:21.649Z,102512.53
2023-02-08T00:59:48.517Z,102509.88
2023-02-08T01:02:15.810Z,102504.69
2023-02-08T01:04:42.735Z,102505.03
2023-02-08T01:07:09.509Z,102504.78
2023-02-08T01:09:37.750Z,102516.97
2023-02-08T01:12:04.494Z,102520.84
2023-02-08T01:14:32.917Z,102521.31
2023-02-08T01:16:59.864Z,102521.56
2023-02-08T01:19:26.651Z,102520.38
2023-02-08T01:21:53.417Z,102518.78
2023-02-08T01:24:20.237Z,102526.09
2023-02-08T01:26:47.053Z,102519.00
2023-02-08T01:29:13.936Z,102527.19
2023-02-08T01:31:42.113Z,102526.84
2023-02-08T01:34:11.002Z,102520.22
2023-02-08T01:36:38.789Z,102518.28
2023-02-08T01:39:08.553Z,102529.16
2023-02-08T01:41:39.000Z,102518.69
2023-02-08T01:44:05.928Z,102523.75
2023-02-08T01:46:38.591Z,102535.47
2023-02-08T01:49:23.361Z,102529.66
2023-02-08T01:52:30.874Z,102523.41
2023-02-08T01:55:05.244Z,102520.16
2023-02-08T01:57:32.245Z,102512.19
2023-02-08T02:00:10.087Z,102511.47
2023-02-08T02:02:45.766Z,102518.94
2023-02-08T02:05:13.461Z,102508.72
2023-02-08T02:07:41.113Z,102511.38
2023-02-08T02:10:14.378Z,102507.41
2023-02-08T02:12:42.212Z,102498.25
2023-02-08T02:15:10.271Z,102502.91
2023-02-08T02:17:39.277Z,102498.13
2023-02-08T02:20:26.752Z,102504.34
2023-02-08T02:23:24.543Z,102496.78
2023-02-08T02:26:19.017Z,102507.00
2023-02-08T02:29:06.677Z,102498.69
2023-02-08T02:31:54.927Z,102502.44
2023-02-08T02:34:30.805Z,102496.25
2023-02-08T02:36:57.521Z,102495.28
2023-02-08T02:39:43.197Z,102487.19
2023-02-08T02:43:09.863Z,102485.41
2023-02-08T02:45:54.017Z,102481.88
2023-02-08T02:48:27.524Z,102513.03
2023-02-08T02:51:00.680Z,102489.84
2023-02-08T02:53:38.022Z,102489.41
2023-02-08T02:56:18.856Z,102492.72
2023-02-08T02:58:46.211Z,102496.31
2023-02-08T03:01:13.487Z,102496.94
2023-02-08T03:03:40.898Z,102495.38
2023-02-08T03:06:14.677Z,102502.47
2023-02-08T03:08:54.362Z,102491.50
2023-02-08T03:11:32.760Z,102503.19
2023-02-08T03:14:33.744Z,102502.00
2023-02-08T03:17:19.615Z,102503.06
2023-02-08T03:20:03.065Z,102499.47
2023-02-08T03:22:43.584Z,102498.84
2023-02-08T03:25:20.809Z,102493.19
2023-02-08T03:28:05.960Z,102491.38
2023-02-08T03:30:52.056Z,102503.22
2023-02-08T03:33:31.315Z,102492.34
2023-02-08T03:36:33.131Z,102495.75
2023-02-08T03:39:04.352Z,102492.84
2023-02-08T03:41:38.967Z,102488.13
2023-02-08T03:44:55.311Z,102497.56
2023-02-08T03:47:38.248Z,102485.03
2023-02-08T03:50:09.562Z,102484.91
2023-02-08T03:52:37.777Z,102486.47
2023-02-08T03:55:13.338Z,102487.69
2023-02-08T03:57:53.953Z,102487.91
2023-02-08T04:00:22.001Z,102490.31
2023-02-08T04:02:59.573Z,102488.19
2023-02-08T04:05:26.736Z,102495.78
2023-02-08T04:07:53.779Z,102491.19
2023-02-08T04:10:20.951Z,102498.53
2023-02-08T04:12:48.584Z,102487.91
2023-02-08T04:15:17.527Z,102496.00
2023-02-08T04:17:44.458Z,102479.38
2023-02-08T04:20:11.882Z,102491.75
2023-02-08T04:22:39.535Z,102482.97
2023-02-08T04:25:06.441Z,102480.69
2023-02-08T04:27:33.162Z,102476.22
2023-02-08T04:30:00.777Z,102470.69
2023-02-08T04:32:27.530Z,102477.81
2023-02-08T04:34:54.290Z,102484.31
2023-02-08T04:37:21.058Z,102486.00
2023-02-08T04:39:47.878Z,102478.38
2023-02-08T04:42:14.802Z,102469.97
2023-02-08T04:44:41.672Z,102476.97
2023-02-08T04:47:08.618Z,102478.19
2023-02-08T04:49:35.346Z,102484.69
2023-02-08T04:52:02.145Z,102482.28
2023-02-08T04:54:29.658Z,102483.59
2023-02-08T04:56:56.859Z,102480.94
2023-02-08T04:59:23.695Z,102472.50
2023-02-08T05:01:50.598Z,102485.50
2023-02-08T05:04:17.493Z,102480.31
2023-02-08T05:06:45.503Z,102488.41
2023-02-08T05:09:13.599Z,102484.41
2023-02-08T05:11:40.504Z,102487.31
2023-02-08T05:14:07.275Z,102483.22
2023-02-08T05:16:34.111Z,102480.31
2023-02-08T05:19:00.943Z,102481.78
2023-02-08T05:21:27.730Z,102470.22
2023-02-08T05:23:54.572Z,102477.22
2023-02-08T05:26:21.425Z,102481.06
2023-02-08T05:28:48.613Z,102482.50
2023-02-08T05:31:20.153Z,102478.63
2023-02-08T05:33:48.489Z,102478.03
2023-02-08T05:36:15.338Z,102476.72
2023-02-08T05:38:42.075Z,102487.31
2023-02-08T05:41:09.554Z,102486.13
2023-02-08T05:43:37.038Z,102491.88
2023-02-08T05:46:04.031Z,102495.88
2023-02-08T05:48:34.565Z,102501.28
2023-02-08T05:51:01.378Z,102499.00
2023-02-08T05:53:28.186Z,102503.69
2023-02-08T05:55:54.943Z,102508.75
2023-02-08T05:58:21.705Z,102516.59
2023-02-08T06:00:48.515Z,102512.63
2023-02-08T06:03:15.337Z,102504.19
2023-02-08T06:05:42.538Z,102503.94
2023-02-08T06:08:09.532Z,102509.38
2023-02-08T06:10:36.476Z,102501.19
2023-02-08T06:13:04.507Z,102508.41
2023-02-08T06:15:32.637Z,102493.59
2023-02-08T06:17:59.394Z,102502.16
2023-02-08T06:20:26.232Z,102505.88
2023-02-08T06:22:52.898Z,102502.28
2023-02-08T06:25:19.622Z,102508.66
2023-02-08T06:27:46.429Z,102500.56
2023-02-08T06:30:13.450Z,102495.03
2023-02-08T06:32:40.310Z,102512.97
2023-02-08T06:35:07.552Z,102509.75
2023-02-08T06:37:34.309Z,102510.31
2023-02-08T06:40:02.066Z,102510.69
2023-02-08T06:42:29.141Z,102526.22
2023-02-08T06:44:56.071Z,102531.53
2023-02-08T06:47:24.256Z,102529.38
2023-02-08T06:49:51.362Z,102532.41
2023-02-08T06:52:19.082Z,102529.25
2023-02-08T06:54:45.890Z,102539.84
2023-02-08T06:57:13.088Z,102533.84
2023-02-08T06:59:41.054Z,102530.06
2023-02-08T07:02:17.468Z,102532.97
2023-02-08T07:04:45.405Z,102541.88
2023-02-08T07:07:16.836Z,102547.53
2023-02-08T07:09:43.810Z,102536.56
2023-02-08T07:12:10.954Z,102536.44
2023-02-08T07:14:40.341Z,102543.94
2023-02-08T07:17:07.253Z,102540.56
2023-02-08T07:19:34.439Z,102538.50
2023-02-08T07:22:07.250Z,102548.16
2023-02-08T07:24:43.416Z,102541.53
2023-02-08T07:27:13.446Z,102548.16
2023-02-08T07:29:40.892Z,102550.19
2023-02-08T07:32:08.671Z,102547.09
2023-02-08T07:34:37.298Z,102548.03
2023-02-08T07:37:05.096Z,102543.94
2023-02-08T07:39:32.239Z,102541.66
2023-02-08T07:41:59.499Z,102551.41
2023-02-08T07:44:30.198Z,102543.44
2023-02-08T07:46:56.955Z,102544.91
2023-02-08T07:49:24.194Z,102543.56
2023-02-08T07:51:50.938Z,102533.59
2023-02-08T07:54:17.870Z,102549.50
2023-02-08T07:56:44.705Z,102543.25
2023-02-08T07:59:11.491Z,102533.47
2023-02-08T08:01:38.226Z,102532.88
2023-02-08T08:04:05.015Z,102538.44
2023-02-08T08:06:31.755Z,102543.00
2023-02-08T08:08:58.454Z,102547.81
2023-02-08T08:11:25.425Z,102546.97
2023-02-08T08:13:52.257Z,102543.38
2023-02-08T08:16:19.390Z,102546.97
2023-02-08T08:18:46.936Z,102546.13
2023-02-08T08:21:15.328Z,102546.38
2023-02-08T08:23:43.024Z,102546.44
2023-02-08T08:26:14.604Z,102547.31
2023-02-08T08:28:42.404Z,102550.78
2023-02-08T08:31:15.176Z,102552.34
2023-02-08T08:33:42.085Z,102566.09
2023-02-08T08:36:09.413Z,102556.44
2023-02-08T08:38:41.085Z,102554.97
2023-02-08T08:41:10.061Z,102554.03
2023-02-08T08:43:36.797Z,102567.09
2023-02-08T08:46:05.854Z,102567.22
2023-02-08T08:48:34.203Z,102564.81
2023-02-08T08:51:01.036Z,102564.47
2023-02-08T08:53:27.872Z,102563.09
2023-02-08T08:55:54.642Z,102566.84
2023-02-08T08:58:21.437Z,102574.78
2023-02-08T09:00:48.348Z,102571.13
2023-02-08T09:03:15.152Z,102576.03
2023-02-08T09:05:41.964Z,102576.25
2023-02-08T09:08:08.768Z,102578.91
2023-02-08T09:10:35.586Z,102580.25
2023-02-08T09:13:02.401Z,102577.69
2023-02-08T09:15:29.296Z,102589.50
2023-02-08T09:17:56.075Z,102587.97
2023-02-08T09:20:23.994Z,102586.50
2023-02-08T09:22:50.848Z,102586.47
2023-02-08T09:25:17.616Z,102588.91
2023-02-08T09:27:44.388Z,102584.56
2023-02-08T09:30:11.749Z,102585.88
2023-02-08T09:32:39.915Z,102595.41
2023-02-08T09:35:09.536Z,102580.97
2023-02-08T09:37:36.275Z,102586.81
2023-02-08T09:40:03.161Z,102589.69
2023-02-08T09:42:38.910Z,102575.50
2023-02-08T09:45:31.032Z,102588.19
2023-02-08T09:48:20.856Z,102590.84
2023-02-08T09:51:00.123Z,102592.88
2023-02-08T09:53:35.237Z,102587.22
2023-02-08T09:56:05.851Z,102594.03
2023-02-08T09:58:46.026Z,102596.63
2023-02-08T10:01:23.641Z,102594.34
2023-02-08T10:03:54.264Z,102592.69
2023-02-08T10:06:21.466Z,102595.56
2023-02-08T10:08:50.844Z,102591.09
2023-02-08T10:11:34.640Z,102584.00
2023-02-08T10:14:04.490Z,102593.06
2023-02-08T10:16:37.273Z,102583.28
2023-02-08T10:19:28.575Z,102588.28
2023-02-08T10:22:18.325Z,102600.44
2023-02-08T10:25:16.130Z,102592.19
2023-02-08T10:27:50.374Z,102603.78
2023-02-08T10:30:39.281Z,102610.00
2023-02-08T10:33:37.440Z,102608.59
2023-02-08T10:36:14.838Z,102609.25
2023-02-08T10:38:46.892Z,102606.78
2023-02-08T10:41:32.504Z,102605.06
2023-02-08T10:44:16.473Z,102615.19
2023-02-08T10:46:43.207Z,102608.03
2023-02-08T10:49:19.064Z,102618.22
2023-02-08T10:51:47.247Z,102613.19
2023-02-08T10:54:15.205Z,102620.44
2023-02-08T10:57:00.975Z,102617.28
2023-02-08T10:59:35.537Z,102617.28
2023-02-08T11:02:02.755Z,102619.53
2023-02-08T11:04:29.636Z,102612.97
2023-02-08T11:06:56.498Z,102620.72
2023-02-08T11:09:29.304Z,102622.69
2023-02-08T11:11:58.672Z,102613.41
2023-02-08T11:14:45.506Z,102615.66
2023-02-08T11:17:34.054Z,102615.09
2023-02-08T11:20:01.238Z,102628.13
2023-02-08T11:22:34.518Z,102626.88
2023-02-08T11:25:08.100Z,102615.63
2023-02-08T11:27:37.492Z,102615.09
2023-02-08T11:30:13.201Z,102615.94
2023-02-08T11:32:41.547Z,102618.75
2023-02-08T11:35:29.610Z,102622.53
2023-02-08T11:37:58.645Z,102607.56
2023-02-08T11:40:34.392Z,102609.63
2023-02-08T11:43:02.142Z,102613.72
2023-02-08T11:45:32.522Z,102608.38
2023-02-08T11:48:01.801Z,102607.28
2023-02-08T11:50:35.013Z,102600.91
2023-02-08T11:53:04.840Z,102606.69
2023-02-08T11:55:35.968Z,102597.28
2023-02-08T11:58:05.446Z,102608.53
2023-02-08T12:00:37.815Z,102608.81
2023-02-08T12:03:24.747Z,102609.50
2023-02-08T12:06:23.202Z,102606.44
2023-02-08T12:09:14.268Z,102599.81
2023-02-08T12:12:13.749Z,102595.50
2023-02-08T12:14:55.590Z,102595.34
2023-02-08T12:17:37.462Z,102590.16
2023-02-08T12:20:38.902Z,102591.13
2023-02-08T12:23:17.653Z,102592.78
2023-02-08T12:25:53.421Z,102590.84
2023-02-08T12:28:35.175Z,102590.69
2023-02-08T12:31:27.474Z,102588.69
2023-02-08T12:34:17.415Z,102588.97
2023-02-08T12:37:27.259Z,102588.44
2023-02-08T12:40:45.613Z,102586.47
2023-02-08T12:43:24.498Z,102592.75
2023-02-08T12:46:22.401Z,102587.28
2023-02-08T12:49:13.964Z,102575.22
2023-02-08T12:52:03.710Z,102574.94
2023-02-08T12:55:03.034Z,102579.94
2023-02-08T12:57:32.029Z,102569.31
2023-02-08T13:00:22.752Z,102575.75
2023-02-08T13:03:08.349Z,102576.81
2023-02-08T13:05:40.844Z,102577.00
2023-02-08T13:08:41.168Z,102574.63
2023-02-08T13:11:20.291Z,102578.25
2023-02-08T13:13:57.393Z,102573.44
2023-02-08T13:16:29.477Z,102568.09
2023-02-08T13:19:05.225Z,102568.00
2023-02-08T13:21:41.052Z,102556.06
2023-02-08T13:24:22.886Z,102559.91
2023-02-08T13:26:49.771Z,102559.59
2023-02-08T13:29:19.571Z,102555.28
2023-02-08T13:32:00.648Z,102554.63
2023-02-08T13:34:44.809Z,102549.66
2023-02-08T13:37:27.386Z,102541.41
2023-02-08T13:40:06.745Z,102546.31
2023-02-08T13:42:42.858Z,102552.91
2023-02-08T13:45:22.549Z,102552.75
2023-02-08T13:47:57.711Z,102542.81
2023-02-08T13:50:29.218Z,102535.38
2023-02-08T13:52:56.412Z,102540.69
2023-02-08T13:55:30.707Z,102540.00
2023-02-08T13:58:00.236Z,102540.97
2023-02-08T14:00:35.578Z,102540.00
2023-02-08T14:03:14.391Z,102545.84
2023-02-08T14:05:50.058Z,102550.66
2023-02-08T14:08:35.212Z,102546.97
2023-02-08T14:11:25.017Z,102546.28
2023-02-08T14:14:00.817Z,102538.97
2023-02-08T14:16:35.868Z,102550.22
2023-02-08T14:19:05.483Z,102542.25
2023-02-08T14:21:34.505Z,102546.91
2023-02-08T14:24:34.153Z,102555.56
2023-02-08T14:27:11.588Z,102541.28
2023-02-08T14:29:38.622Z,102548.56
2023-02-08T14:32:05.784Z,102549.78
2023-02-08T14:34:37.729Z,102542.88
2023-02-08T14:37:20.473Z,102549.75
2023-02-08T14:39:50.578Z,102548.94
2023-02-08T14:42:55.458Z,102552.06
2023-02-08T14:45:33.994Z,102547.72
2023-02-08T14:48:21.330Z,102549.66
2023-02-08T14:50:52.758Z,102554.88
2023-02-08T14:53:42.499Z,102540.25
2023-02-08T14:56:23.409Z,102544.50
2023-02-08T14:58:57.499Z,102546.28
2023-02-08T15:01:45.111Z,102540.56
2023-02-08T15:04:14.399Z,102548.41
2023-02-08T15:07:06.590Z,102552.75
2023-02-08T15:09:40.621Z,102550.75
2023-02-08T15:12:34.366Z,102552.44
2023-02-08T15:15:03.576Z,102553.16
2023-02-08T15:17:34.491Z,102544.06
2023-02-08T15:20:04.401Z,102550.72
2023-02-08T15:22:32.966Z,102549.38
2023-02-08T15:25:11.447Z,102548.00
2023-02-08T15:27:38.757Z,102546.16
2023-02-08T15:30:05.840Z,102544.06
2023-02-08T15:32:33.642Z,102545.34
2023-02-08T15:35:03.165Z,102547.16
2023-02-08T15:37:33.762Z,102539.75
2023-02-08T15:40:02.187Z,102539.88
2023-02-08T15:42:33.254Z,102538.19
2023-02-08T15:45:02.701Z,102535.22
2023-02-08T15:47:33.523Z,102529.91
2023-02-08T15:50:00.729Z,102539.28
2023-02-08T15:52:33.015Z,102531.16
2023-02-08T15:54:59.846Z,102530.19
2023-02-08T15:57:44.046Z,102529.59
2023-02-08T16:00:17.840Z,102528.63
2023-02-08T16:02:50.558Z,102532.03
2023-02-08T16:05:32.172Z,102533.69
2023-02-08T16:08:00.888Z,102528.91
2023-02-08T16:10:48.906Z,102532.81
2023-02-08T16:13:23.894Z,102537.44
2023-02-08T16:16:07.094Z,102540.09
2023-02-08T16:18:38.637Z,102541.25
2023-02-08T16:21:18.056Z,102553.28
2023-02-08T16:23:51.188Z,102551.00
2023-02-08T16:26:42.207Z,102545.81
2023-02-08T16:29:20.229Z,102544.81
2023-02-08T16:31:49.344Z,102551.28
2023-02-08T16:34:18.884Z,102548.75
2023-02-08T16:36:51.350Z,102552.13
2023-02-08T16:39:18.081Z,102555.78
2023-02-08T16:42:00.972Z,102552.94
2023-02-08T16:44:36.189Z,102558.28
2023-02-08T16:47:28.093Z,102561.63
2023-02-08T16:49:54.865Z,102564.16
2023-02-08T16:52:21.701Z,102562.47
2023-02-08T16:54:48.680Z,102574.78
2023-02-08T16:57:15.554Z,102580.56
2023-02-08T16:59:42.280Z,102582.22
2023-02-08T17:02:13.023Z,102570.53
2023-02-08T17:04:40.236Z,102578.00
2023-02-08T17:07:17.273Z,102573.06
2023-02-08T17:09:44.050Z,102582.28
2023-02-08T17:12:21.848Z,102583.63
2023-02-08T17:14:49.419Z,102583.34
2023-02-08T17:17:16.227Z,102581.06
2023-02-08T17:19:44.459Z,102583.53
2023-02-08T17:22:11.303Z,102591.63
2023-02-08T17:24:39.294Z,102589.19
2023-02-08T17:27:06.453Z,102592.34
2023-02-08T17:29:33.256Z,102597.50
2023-02-08T17:31:59.986Z,102601.69
2023-02-08T17:34:27.745Z,102605.25
2023-02-08T17:36:54.673Z,102607.91
2023-02-08T17:39:21.571Z,102612.31
2023-02-08T17:41:48.338Z,102609.28
2023-02-08T17:44:15.435Z,102613.56
2023-02-08T17:46:42.737Z,102619.31
2023-02-08T17:49:09.601Z,102628.53
2023-02-08T17:51:36.457Z,102630.22
2023-02-08T17:54:06.482Z,102633.66
2023-02-08T17:56:35.465Z,102629.50
2023-02-08T17:59:05.760Z,102639.97
2023-02-08T18:01:33.203Z,102642.72
2023-02-08T18:04:00.741Z,102643.31
2023-02-08T18:06:28.731Z,102642.22
2023-02-08T18:08:55.766Z,102646.31
2023-02-08T18:11:24.112Z,102648.91
2023-02-08T18:13:53.323Z,102646.63
2023-02-08T18:16:25.389Z,102658.28
2023-02-08T18:18:55.504Z,102667.09
2023-02-08T18:21:24.282Z,102668.97
2023-02-08T18:23:51.450Z,102663.81
2023-02-08T18:26:21.355Z,102672.41
2023-02-08T18:28:48.467Z,102682.78
2023-02-08T18:31:19.907Z,102684.03
2023-02-08T18:33:48.519Z,102679.78
2023-02-08T18:36:17.220Z,102688.75
2023-02-08T18:38:46.613Z,102689.00
2023-02-08T18:41:19.760Z,102697.91
2023-02-08T18:43:47.249Z,102695.97
2023-02-08T18:46:18.253Z,102702.25
2023-02-08T18:48:46.694Z,102699.47
2023-02-08T18:51:14.798Z,102701.03
2023-02-08T18:53:42.414Z,102699.59
2023-02-08T18:56:11.663Z,102695.84
2023-02-08T18:58:38.521Z,102697.53
2023-02-08T19:01:15.457Z,102698.16
2023-02-08T19:03:44.911Z,102689.22
2023-02-08T19:06:14.799Z,102694.31
2023-02-08T19:08:41.608Z,102697.78
2023-02-08T19:11:35.883Z,102696.81
2023-02-08T19:14:08.140Z,102704.91
2023-02-08T19:16:39.078Z,102699.59
2023-02-08T19:19:07.003Z,102712.75
2023-02-08T19:21:34.157Z,102705.53
2023-02-08T19:24:02.300Z,102716.47
2023-02-08T19:26:41.425Z,102723.47
2023-02-08T19:29:14.311Z,102719.75
2023-02-08T19:31:41.891Z,102724.69
2023-02-08T19:34:10.492Z,102721.69
2023-02-08T19:36:44.147Z,102721.19
2023-02-08T19:39:19.308Z,102732.78
2023-02-08T19:41:47.297Z,102729.53
2023-02-08T19:44:16.533Z,102730.13
2023-02-08T19:46:47.728Z,102740.25
2023-02-08T19:49:20.182Z,102730.38
2023-02-08T19:51:47.628Z,102737.97
2023-02-08T19:54:17.444Z,102733.69
2023-02-08T19:56:44.880Z,102729.34
2023-02-08T19:59:27.935Z,102725.00
2023-02-08T20:01:55.640Z,102733.69
2023-02-08T20:04:22.612Z,102737.91
2023-02-08T20:06:53.367Z,102743.44
2023-02-08T20:09:20.656Z,102745.56
2023-02-08T20:11:57.914Z,102741.44
2023-02-08T20:14:26.199Z,102749.81
2023-02-08T20:16:53.137Z,102745.88
2023-02-08T20:19:20.419Z,102749.09
2023-02-08T20:21:51.571Z,102735.88
2023-02-08T20:24:28.469Z,102740.91
2023-02-08T20:26:57.671Z,102749.19
2023-02-08T20:29:25.126Z,102739.66
2023-02-08T20:31:55.596Z,102738.97
2023-02-08T20:34:23.605Z,102738.94
2023-02-08T20:37:05.731Z,102742.81
2023-02-08T20:39:38.831Z,102748.66
2023-02-08T20:42:09.906Z,102754.25
2023-02-08T20:44:46.807Z,102756.63
2023-02-08T20:47:19.253Z,102749.72
2023-02-08T20:49:47.037Z,102750.50
2023-02-08T20:52:19.714Z,102748.09
2023-02-08T20:54:46.836Z,102754.16
2023-02-08T20:57:15.213Z,102751.69
2023-02-08T20:59:45.702Z,102751.72
2023-02-08T21:02:19.624Z,102758.44
2023-02-08T21:04:46.597Z,102765.63
2023-02-08T21:07:17.610Z,102758.44
2023-02-08T21:09:45.270Z,102765.63
2023-02-08T21:12:12.197Z,102761.09
2023-02-08T21:14:39.462Z,102757.22
2023-02-08T21:17:06.314Z,102753.44
2023-02-08T21:19:33.094Z,102769.28
2023-02-08T21:22:07.069Z,102770.00
2023-02-08T21:24:39.069Z,102770.75
2023-02-08T21:27:12.362Z,102765.66
2023-02-08T21:29:41.879Z,102768.50
2023-02-08T21:32:11.282Z,102764.06
2023-02-08T21:34:38.920Z,102765.91
2023-02-08T21:37:06.815Z,102760.63
2023-02-08T21:39:33.690Z,102753.78
2023-02-08T21:42:03.847Z,102758.13
2023-02-08T21:44:33.131Z,102755.31
2023-02-08T21:46:59.906Z,102747.38
2023-02-08T21:49:45.531Z,102744.06
2023-02-08T21:52:30.784Z,102748.41
2023-02-08T21:54:57.714Z,102748.66
2023-02-08T21:57:27.510Z,102752.06
2023-02-08T21:59:57.681Z,102758.41
2023-02-08T22:02:28.332Z,102753.59
2023-02-08T22:04:57.513Z,102765.81
2023-02-08T22:07:27.528Z,102767.66
2023-02-08T22:09:54.679Z,102766.69
2023-02-08T22:12:23.153Z,102767.66
2023-02-08T22:14:53.258Z,102761.06
2023-02-08T22:17:21.275Z,102765.63
2023-02-08T22:19:48.154Z,102762.13
2023-02-08T22:22:14.925Z,102761.00
2023-02-08T22:24:42.009Z,102750.19
2023-02-08T22:27:12.133Z,102758.69
2023-02-08T22:29:38.885Z,102759.19
2023-02-08T22:32:06.072Z,102748.75
2023-02-08T22:34:33.102Z,102752.66
2023-02-08T22:37:03.733Z,102745.03
2023-02-08T22:39:35.357Z,102743.09
2023-02-08T22:42:08.207Z,102742.78
2023-02-08T22:44:36.548Z,102743.63
2023-02-08T22:47:04.869Z,102740.16
2023-02-08T22:49:35.162Z,102738.31
2023-02-08T22:52:02.549Z,102742.59
2023-02-08T22:54:32.468Z,102748.38
2023-02-08T22:56:59.427Z,102748.25
2023-02-08T22:59:26.330Z,102751.03
2023-02-08T23:01:53.367Z,102749.56
2023-02-08T23:04:20.228Z,102751.84
2023-02-08T23:06:47.596Z,102756.09
2023-02-08T23:09:14.435Z,102754.91
2023-02-08T23:11:43.537Z,102757.91
2023-02-08T23:14:10.394Z,102760.78
2023-02-08T23:16:38.033Z,102758.59
2023-02-08T23:19:08.079Z,102767.22
2023-02-08T23:21:34.877Z,102767.47
2023-02-08T23:24:01.687Z,102775.66
2023-02-08T23:26:28.489Z,102770.34
2023-02-08T23:28:55.219Z,102779.81
2023-02-08T23:31:22.522Z,102777.81
2023-02-08T23:33:49.582Z,102784.28
2023-02-08T23:36:19.880Z,102775.94
2023-02-08T23:38:47.383Z,102780.53
2023-02-08T23:41:20.050Z,102781.31
2023-02-08T23:43:46.978Z,102788.25
2023-02-08T23:46:22.437Z,102786.66
2023-02-08T23:48:51.990Z,102791.44
2023-02-08T23:51:21.624Z,102784.59
2023-02-08T23:53:49.564Z,102783.13
2023-02-08T23:56:23.289Z,102784.78
2023-02-08T23:58:52.607Z,102782.50
